createdAt,value
2018-06-12T00:00:15.504Z,19.36
2018-06-12T00:02:44.466Z,19.42
2018-06-12T00:05:19.663Z,19.90
2018-06-12T00:07:48.623Z,19.85
2018-06-12T00:10:17.582Z,19.66
2018-06-12T00:12:46.566Z,19.64
2018-06-12T00:15:15.513Z,19.56
2018-06-12T00:17:44.470Z,19.00
2018-06-12T00:20:13.434Z,19.01
2018-06-12T00:22:42.436Z,19.22
2018-06-12T00:25:11.411Z,19.53
2018-06-12T00:27:40.390Z,19.65
2018-06-12T00:30:09.307Z,19.41
2018-06-12T00:32:38.334Z,19.89
2018-06-12T00:35:07.278Z,19.67
2018-06-12T00:37:36.254Z,19.19
2018-06-12T00:40:05.182Z,19.20
2018-06-12T00:42:34.240Z,19.05
2018-06-12T00:45:03.182Z,19.20
2018-06-12T00:47:32.154Z,19.40
2018-06-12T00:50:01.094Z,19.25
2018-06-12T00:52:30.094Z,19.42
2018-06-12T00:54:59.037Z,18.99
2018-06-12T00:57:28.043Z,19.19
2018-06-12T00:59:57.056Z,19.17
2018-06-12T01:02:25.991Z,19.58
2018-06-12T01:04:54.971Z,19.15
2018-06-12T01:07:23.924Z,19.05
2018-06-12T01:09:53.850Z,19.40
2018-06-12T01:12:22.820Z,19.43
2018-06-12T01:14:51.819Z,19.57
2018-06-12T01:17:21.058Z,19.45
2018-06-12T01:19:50.036Z,19.20
2018-06-12T01:22:18.993Z,19.37
2018-06-12T01:24:47.959Z,19.41
2018-06-12T01:27:16.859Z,19.29
2018-06-12T01:29:45.839Z,19.45
2018-06-12T01:32:14.770Z,19.47
2018-06-12T01:34:43.763Z,19.51
2018-06-12T01:37:12.704Z,19.66
2018-06-12T01:39:41.676Z,19.70
2018-06-12T01:42:10.623Z,19.49
2018-06-12T01:44:39.633Z,19.71
2018-06-12T01:47:08.574Z,19.73
2018-06-12T01:49:37.550Z,19.17
2018-06-12T01:52:06.538Z,19.82
2018-06-12T01:54:35.537Z,19.95
2018-06-12T01:57:04.494Z,20.11
2018-06-12T01:59:33.473Z,20.33
2018-06-12T02:02:02.439Z,20.16
2018-06-12T02:04:31.396Z,19.58
2018-06-12T02:07:00.314Z,19.55
2018-06-12T02:09:29.269Z,19.78
2018-06-12T02:11:58.202Z,19.82
2018-06-12T02:14:27.208Z,19.47
2018-06-12T02:16:56.155Z,19.30
2018-06-12T02:19:25.133Z,19.28
2018-06-12T02:21:54.085Z,19.12
2018-06-12T02:24:23.134Z,19.14
2018-06-12T02:26:52.078Z,19.26
2018-06-12T02:29:21.006Z,19.17
2018-06-12T02:31:50.061Z,18.82
2018-06-12T02:34:19.038Z,18.71
2018-06-12T02:36:48.055Z,18.90
2018-06-12T02:39:17.031Z,18.61
2018-06-12T02:41:46.051Z,18.70
2018-06-12T02:44:15.014Z,18.72
2018-06-12T02:46:44.050Z,18.67
2018-06-12T02:49:13.057Z,18.28
2018-06-12T02:51:42.084Z,18.65
2018-06-12T02:54:11.054Z,18.71
2018-06-12T02:56:40.063Z,18.55
2018-06-12T02:59:09.151Z,18.57
2018-06-12T03:01:38.174Z,18.42
2018-06-12T03:04:07.151Z,18.49
2018-06-12T03:06:36.153Z,18.66
2018-06-12T03:09:07.532Z,18.63
2018-06-12T03:11:36.559Z,18.72
2018-06-12T03:14:05.534Z,18.40
2018-06-12T03:16:34.564Z,18.72
2018-06-12T03:19:03.573Z,18.89
2018-06-12T03:21:32.605Z,18.79
2018-06-12T03:24:01.576Z,18.82
2018-06-12T03:26:37.063Z,18.87
2018-06-12T03:29:06.074Z,18.91
2018-06-12T03:31:35.229Z,18.56
2018-06-12T03:34:04.226Z,18.81
2018-06-12T03:36:33.248Z,18.93
2018-06-12T03:39:02.199Z,19.05
2018-06-12T03:41:31.227Z,18.99
2018-06-12T03:44:00.205Z,18.70
2018-06-12T03:46:29.218Z,18.64
2018-06-12T03:48:58.214Z,18.59
2018-06-12T03:51:27.277Z,18.62
2018-06-12T03:53:56.282Z,18.40
2018-06-12T03:56:25.309Z,18.61
2018-06-12T03:58:54.323Z,18.33
2018-06-12T04:01:23.353Z,18.43
2018-06-12T04:03:52.351Z,18.70
2018-06-12T04:06:21.313Z,18.86
2018-06-12T04:08:50.360Z,18.48
2018-06-12T04:11:19.331Z,18.55
2018-06-12T04:13:48.325Z,18.56
2018-06-12T04:16:17.301Z,18.47
2018-06-12T04:18:46.306Z,18.29
2018-06-12T04:21:15.260Z,18.48
2018-06-12T04:23:50.952Z,17.99
2018-06-12T04:26:19.942Z,18.39
2018-06-12T04:28:48.933Z,18.51
2018-06-12T04:31:17.895Z,18.40
2018-06-12T04:33:46.903Z,17.98
2018-06-12T04:36:15.878Z,18.17
2018-06-12T04:38:44.903Z,18.07
2018-06-12T04:41:13.877Z,18.17
2018-06-12T04:43:42.961Z,18.73
2018-06-12T04:46:11.926Z,18.84
2018-06-12T04:48:40.956Z,18.56
2018-06-12T04:51:09.922Z,18.67
2018-06-12T04:53:38.923Z,18.64
2018-06-12T04:56:07.953Z,18.10
2018-06-12T04:58:36.965Z,17.97
2018-06-12T05:01:05.957Z,18.44
2018-06-12T05:03:34.984Z,18.58
2018-06-12T05:06:03.982Z,18.94
2018-06-12T05:08:33.013Z,18.98
2018-06-12T05:11:01.996Z,18.93
2018-06-12T05:13:31.014Z,18.54
2018-06-12T05:15:59.961Z,18.38
2018-06-12T05:18:29.103Z,18.10
2018-06-12T05:20:58.086Z,18.75
2018-06-12T05:23:27.083Z,18.30
2018-06-12T05:25:56.090Z,18.46
2018-06-12T05:28:25.088Z,18.79
2018-06-12T05:30:54.089Z,18.90
2018-06-12T05:33:23.141Z,18.40
2018-06-12T05:35:52.245Z,18.17
2018-06-12T05:38:21.233Z,18.14
2018-06-12T05:40:50.257Z,18.08
2018-06-12T05:43:19.253Z,18.44
2018-06-12T05:45:48.294Z,18.39
2018-06-12T05:48:17.291Z,18.37
2018-06-12T05:50:46.488Z,18.40
2018-06-12T05:53:15.473Z,17.90
2018-06-12T05:55:44.585Z,17.96
2018-06-12T05:58:13.595Z,18.26
2018-06-12T06:00:42.579Z,18.58
2018-06-12T06:03:11.598Z,18.21
2018-06-12T06:05:40.646Z,18.26
2018-06-12T06:08:09.612Z,18.28
2018-06-12T06:10:38.691Z,18.16
2018-06-12T06:13:07.683Z,18.61
2018-06-12T06:15:36.786Z,19.03
2018-06-12T06:18:05.783Z,18.72
2018-06-12T06:20:34.823Z,18.57
2018-06-12T06:23:03.844Z,18.60
2018-06-12T06:25:32.851Z,18.84
2018-06-12T06:28:01.835Z,18.62
2018-06-12T06:30:30.862Z,18.52
2018-06-12T06:32:59.893Z,18.06
2018-06-12T06:35:28.915Z,18.00
2018-06-12T06:37:57.903Z,18.42
2018-06-12T06:40:26.971Z,18.97
2018-06-12T06:42:55.945Z,18.91
2018-06-12T06:45:25.050Z,19.01
2018-06-12T06:47:54.069Z,19.19
2018-06-12T06:50:23.039Z,19.31
2018-06-12T06:52:52.083Z,19.67
2018-06-12T06:55:21.047Z,19.64
2018-06-12T06:57:50.075Z,19.72
2018-06-12T07:00:19.084Z,19.64
2018-06-12T07:02:48.101Z,19.59
2018-06-12T07:05:17.121Z,19.66
2018-06-12T07:07:46.180Z,19.74
2018-06-12T07:10:15.186Z,19.68
2018-06-12T07:12:44.202Z,19.67
2018-06-12T07:15:13.178Z,20.13
2018-06-12T07:17:42.217Z,19.89
2018-06-12T07:20:11.190Z,20.29
2018-06-12T07:22:40.216Z,20.50
2018-06-12T07:25:09.173Z,20.74
2018-06-12T07:27:38.203Z,20.88
2018-06-12T07:30:07.206Z,20.32
2018-06-12T07:32:36.326Z,20.94
2018-06-12T07:35:05.376Z,21.20
2018-06-12T07:37:34.411Z,20.56
2018-06-12T07:40:03.462Z,20.43
2018-06-12T07:42:32.525Z,20.13
2018-06-12T07:45:01.517Z,20.13
2018-06-12T07:47:30.621Z,20.41
2018-06-12T07:49:59.575Z,21.14
2018-06-12T07:52:29.490Z,20.61
2018-06-12T07:54:58.550Z,21.33
2018-06-12T07:57:27.515Z,21.29
2018-06-12T07:59:56.576Z,20.38
2018-06-12T08:02:25.575Z,19.97
2018-06-12T08:04:54.623Z,20.28
2018-06-12T08:07:23.574Z,20.26
2018-06-12T08:09:52.579Z,19.94
2018-06-12T08:12:21.565Z,19.89
2018-06-12T08:14:50.588Z,20.16
2018-06-12T08:17:19.567Z,19.93
2018-06-12T08:19:48.588Z,19.60
2018-06-12T08:22:17.581Z,19.60
2018-06-12T08:24:46.599Z,20.01
2018-06-12T08:27:15.593Z,20.89
2018-06-12T08:29:44.774Z,20.75
2018-06-12T08:32:13.645Z,20.17
2018-06-12T08:34:42.688Z,20.11
2018-06-12T08:37:12.854Z,20.02
2018-06-12T08:39:41.863Z,19.74
2018-06-12T08:42:10.819Z,20.46
2018-06-12T08:44:39.825Z,19.69
2018-06-12T08:47:08.820Z,19.63
2018-06-12T08:49:37.835Z,19.44
2018-06-12T08:52:06.818Z,19.54
2018-06-12T08:54:35.818Z,19.71
2018-06-12T08:57:04.820Z,19.39
2018-06-12T08:59:33.807Z,19.80
2018-06-12T09:02:03.032Z,19.94
2018-06-12T09:04:32.050Z,20.17
2018-06-12T09:07:01.082Z,20.29
2018-06-12T09:09:30.124Z,20.11
2018-06-12T09:11:59.145Z,19.60
2018-06-12T09:14:28.175Z,19.65
2018-06-12T09:16:57.148Z,20.06
2018-06-12T09:19:26.154Z,20.12
2018-06-12T09:21:55.155Z,20.50
2018-06-12T09:24:24.203Z,19.98
2018-06-12T09:26:53.174Z,19.58
2018-06-12T09:29:22.142Z,19.74
2018-06-12T09:31:51.145Z,20.55
2018-06-12T09:34:20.102Z,19.93
2018-06-12T09:36:49.066Z,19.60
2018-06-12T09:39:18.049Z,19.82
2018-06-12T09:41:47.050Z,19.86
2018-06-12T09:44:16.033Z,19.51
2018-06-12T09:46:45.035Z,19.70
2018-06-12T09:49:14.136Z,19.59
2018-06-12T09:51:43.173Z,19.64
2018-06-12T09:54:12.143Z,19.83
2018-06-12T09:56:41.155Z,19.64
2018-06-12T09:59:10.122Z,20.33
2018-06-12T10:01:39.163Z,20.64
2018-06-12T10:04:08.167Z,20.63
2018-06-12T10:06:37.201Z,20.92
2018-06-12T10:09:08.067Z,20.89
2018-06-12T10:11:37.137Z,20.75
2018-06-12T10:14:06.102Z,20.37
2018-06-12T10:16:35.114Z,20.29
2018-06-12T10:19:04.110Z,20.78
2018-06-12T10:21:33.108Z,19.93
2018-06-12T10:24:02.066Z,20.39
2018-06-12T10:26:31.116Z,20.68
2018-06-12T10:29:00.043Z,20.79
2018-06-12T10:31:29.104Z,20.95
2018-06-12T10:33:58.074Z,20.84
2018-06-12T10:36:27.130Z,20.97
2018-06-12T10:38:56.092Z,21.21
2018-06-12T10:41:25.142Z,21.16
2018-06-12T10:43:54.100Z,20.69
2018-06-12T10:46:23.147Z,21.15
2018-06-12T10:48:52.105Z,20.74
2018-06-12T10:51:21.115Z,21.11
2018-06-12T10:53:50.083Z,21.64
2018-06-12T10:56:19.031Z,21.93
2018-06-12T10:58:48.050Z,21.49
2018-06-12T11:01:17.015Z,21.92
2018-06-12T11:03:46.012Z,22.44
2018-06-12T11:06:14.964Z,21.89
2018-06-12T11:08:43.973Z,22.73
2018-06-12T11:11:13.003Z,22.70
2018-06-12T11:13:42.081Z,22.90
2018-06-12T11:16:11.046Z,22.76
2018-06-12T11:18:40.072Z,21.73
2018-06-12T11:21:09.054Z,21.84
2018-06-12T11:23:38.092Z,22.38
2018-06-12T11:26:07.048Z,21.37
2018-06-12T11:28:36.070Z,20.89
2018-06-12T11:31:05.039Z,21.14
2018-06-12T11:33:34.381Z,21.00
2018-06-12T11:36:03.660Z,20.79
2018-06-12T11:38:32.987Z,21.56
2018-06-12T11:41:02.236Z,21.85
2018-06-12T11:43:31.255Z,22.41
2018-06-12T11:46:00.254Z,22.36
2018-06-12T11:48:29.265Z,23.07
2018-06-12T11:50:58.277Z,22.84
2018-06-12T11:53:27.260Z,22.58
2018-06-12T11:55:56.214Z,22.86
2018-06-12T11:58:25.193Z,22.98
2018-06-12T12:00:54.236Z,22.42
2018-06-12T12:03:23.486Z,22.63
2018-06-12T12:05:52.655Z,23.35
2018-06-12T12:08:22.347Z,22.15
2018-06-12T12:10:52.711Z,22.32
2018-06-12T12:13:21.904Z,21.73
2018-06-12T12:15:50.913Z,22.11
2018-06-12T12:18:20.891Z,22.90
2018-06-12T12:20:49.915Z,23.12
2018-06-12T12:23:18.930Z,22.75
2018-06-12T12:25:47.923Z,22.53
2018-06-12T12:28:16.898Z,22.26
2018-06-12T12:30:45.973Z,22.98
2018-06-12T12:33:15.012Z,22.22
2018-06-12T12:35:45.176Z,21.48
2018-06-12T12:38:14.187Z,21.82
2018-06-12T12:40:43.207Z,22.36
2018-06-12T12:43:12.163Z,21.61
2018-06-12T12:45:41.147Z,23.25
2018-06-12T12:48:10.122Z,23.14
2018-06-12T12:50:39.171Z,21.64
2018-06-12T12:53:08.150Z,22.42
2018-06-12T12:55:37.181Z,21.96
2018-06-12T12:58:06.300Z,22.64
2018-06-12T13:00:35.319Z,22.48
2018-06-12T13:03:04.309Z,21.61
2018-06-12T13:05:33.747Z,22.49
2018-06-12T13:08:02.845Z,21.62
2018-06-12T13:10:32.118Z,22.94
2018-06-12T13:13:01.919Z,23.74
2018-06-12T13:15:31.121Z,24.29
2018-06-12T13:18:00.256Z,23.66
2018-06-12T13:20:29.717Z,23.49
2018-06-12T13:22:58.941Z,23.25
2018-06-12T13:25:28.489Z,23.62
2018-06-12T13:27:57.757Z,22.73
2018-06-12T13:30:27.400Z,22.62
2018-06-12T13:32:56.590Z,22.16
2018-06-12T13:35:25.926Z,22.58
2018-06-12T13:37:55.140Z,23.03
2018-06-12T13:40:24.356Z,22.12
2018-06-12T13:42:53.429Z,22.26
2018-06-12T13:45:22.977Z,22.70
2018-06-12T13:47:52.695Z,23.49
2018-06-12T13:50:22.071Z,23.24
2018-06-12T13:52:51.207Z,22.64
2018-06-12T13:55:20.262Z,23.09
2018-06-12T13:57:49.491Z,22.77
2018-06-12T14:00:18.537Z,23.07
2018-06-12T14:02:47.622Z,23.47
2018-06-12T14:05:16.785Z,23.06
2018-06-12T14:07:46.199Z,23.12
2018-06-12T14:10:15.327Z,22.88
2018-06-12T14:12:45.073Z,23.25
2018-06-12T14:15:14.172Z,23.05
2018-06-12T14:17:43.559Z,22.89
2018-06-12T14:20:12.935Z,23.04
2018-06-12T14:22:42.752Z,23.48
2018-06-12T14:25:13.413Z,23.68
2018-06-12T14:27:43.002Z,23.64
2018-06-12T14:30:12.600Z,23.02
2018-06-12T14:32:41.795Z,22.46
2018-06-12T14:35:11.080Z,22.59
2018-06-12T14:37:40.600Z,22.51
2018-06-12T14:40:09.914Z,22.23
2018-06-12T14:42:39.199Z,21.95
2018-06-12T14:45:08.171Z,22.83
2018-06-12T14:47:37.222Z,22.42
2018-06-12T14:50:06.315Z,22.23
2018-06-12T14:52:36.416Z,22.39
2018-06-12T14:55:05.438Z,22.27
2018-06-12T14:57:34.584Z,22.95
2018-06-12T15:00:03.774Z,22.60
2018-06-12T15:02:32.852Z,22.92
2018-06-12T15:05:01.867Z,22.71
2018-06-12T15:07:31.748Z,22.70
2018-06-12T15:10:00.789Z,21.96
2018-06-12T15:12:29.887Z,22.38
2018-06-12T15:14:58.989Z,22.09
2018-06-12T15:17:28.007Z,22.21
2018-06-12T15:19:57.164Z,21.99
2018-06-12T15:22:26.133Z,22.07
2018-06-12T15:24:55.162Z,22.54
2018-06-12T15:27:24.187Z,22.32
2018-06-12T15:29:53.337Z,22.08
2018-06-12T15:32:22.390Z,22.42
2018-06-12T15:34:51.413Z,22.62
2018-06-12T15:37:20.390Z,21.56
2018-06-12T15:39:49.399Z,22.09
2018-06-12T15:42:18.374Z,22.49
2018-06-12T15:44:47.436Z,22.33
2018-06-12T15:47:16.429Z,22.94
2018-06-12T15:49:45.441Z,22.97
2018-06-12T15:52:14.406Z,22.82
2018-06-12T15:54:43.404Z,22.94
2018-06-12T15:57:12.346Z,23.23
2018-06-12T15:59:41.347Z,23.39
2018-06-12T16:02:10.318Z,23.62
2018-06-12T16:04:39.308Z,23.26
2018-06-12T16:07:08.300Z,22.57
2018-06-12T16:09:37.291Z,22.40
2018-06-12T16:12:06.253Z,22.71
2018-06-12T16:14:35.254Z,23.52
2018-06-12T16:17:04.223Z,22.87
2018-06-12T16:19:33.195Z,22.73
2018-06-12T16:22:02.393Z,22.78
2018-06-12T16:24:31.405Z,23.37
2018-06-12T16:27:00.390Z,23.72
2018-06-12T16:29:29.333Z,23.33
2018-06-12T16:31:58.354Z,23.89
2018-06-12T16:34:27.319Z,22.64
2018-06-12T16:36:56.311Z,23.02
2018-06-12T16:39:26.107Z,22.32
2018-06-12T16:41:55.106Z,22.59
2018-06-12T16:44:24.083Z,22.10
2018-06-12T16:46:53.157Z,22.30
2018-06-12T16:49:22.126Z,22.12
2018-06-12T16:51:51.134Z,22.71
2018-06-12T16:54:20.114Z,23.29
2018-06-12T16:56:49.096Z,22.77
2018-06-12T16:59:18.229Z,22.88
2018-06-12T17:01:47.254Z,22.87
2018-06-12T17:04:16.277Z,22.35
2018-06-12T17:06:45.362Z,22.84
2018-06-12T17:09:14.678Z,23.11
2018-06-12T17:11:44.152Z,22.22
2018-06-12T17:14:13.223Z,21.67
2018-06-12T17:16:42.688Z,22.45
2018-06-12T17:19:11.903Z,22.36
2018-06-12T17:21:40.971Z,22.31
2018-06-12T17:24:09.971Z,21.53
2018-06-12T17:26:39.043Z,21.92
2018-06-12T17:29:08.032Z,22.17
2018-06-12T17:31:37.043Z,22.23
2018-06-12T17:34:06.203Z,22.61
2018-06-12T17:36:35.414Z,22.60
2018-06-12T17:39:05.984Z,21.98
2018-06-12T17:41:35.027Z,22.14
2018-06-12T17:44:04.018Z,21.86
2018-06-12T17:46:33.107Z,22.23
2018-06-12T17:49:02.343Z,22.32
2018-06-12T17:51:31.445Z,21.61
2018-06-12T17:54:00.465Z,22.03
2018-06-12T17:56:29.885Z,21.51
2018-06-12T17:58:58.892Z,21.77
2018-06-12T18:01:27.926Z,21.75
2018-06-12T18:03:57.182Z,21.96
2018-06-12T18:06:26.621Z,22.43
2018-06-12T18:08:55.582Z,22.11
2018-06-12T18:11:24.563Z,21.51
2018-06-12T18:13:53.610Z,21.85
2018-06-12T18:16:22.587Z,21.83
2018-06-12T18:18:51.566Z,21.01
2018-06-12T18:21:20.556Z,20.76
2018-06-12T18:23:49.580Z,21.52
2018-06-12T18:26:18.545Z,21.79
2018-06-12T18:28:47.544Z,21.66
2018-06-12T18:31:16.661Z,21.30
2018-06-12T18:33:46.340Z,20.90
2018-06-12T18:36:15.328Z,20.72
2018-06-12T18:38:44.362Z,20.76
2018-06-12T18:41:13.384Z,21.32
2018-06-12T18:43:42.459Z,21.28
2018-06-12T18:46:11.432Z,21.12
2018-06-12T18:48:40.485Z,21.04
2018-06-12T18:51:09.473Z,21.00
2018-06-12T18:53:38.608Z,20.77
2018-06-12T18:56:07.606Z,20.62
2018-06-12T18:58:36.688Z,20.93
2018-06-12T19:01:05.662Z,20.91
2018-06-12T19:03:34.733Z,20.96
2018-06-12T19:06:03.879Z,20.94
2018-06-12T19:08:33.070Z,20.95
2018-06-12T19:11:02.315Z,20.77
2018-06-12T19:13:31.512Z,20.83
2018-06-12T19:16:00.504Z,20.84
2018-06-12T19:18:29.553Z,20.57
2018-06-12T19:20:58.665Z,20.69
2018-06-12T19:23:27.695Z,20.53
2018-06-12T19:25:56.738Z,20.76
2018-06-12T19:28:25.984Z,20.59
2018-06-12T19:30:55.031Z,20.30
2018-06-12T19:33:24.114Z,20.68
2018-06-12T19:35:53.123Z,19.95
2018-06-12T19:38:22.143Z,19.74
2018-06-12T19:40:51.191Z,20.11
2018-06-12T19:43:20.293Z,20.12
2018-06-12T19:45:49.434Z,19.90
2018-06-12T19:48:18.514Z,20.06
2018-06-12T19:50:47.701Z,20.09
2018-06-12T19:53:16.693Z,20.09
2018-06-12T19:55:45.715Z,19.87
2018-06-12T19:58:14.707Z,20.01
2018-06-12T20:00:43.929Z,19.95
2018-06-12T20:03:13.295Z,19.98
2018-06-12T20:05:42.407Z,20.09
2018-06-12T20:08:11.555Z,19.71
2018-06-12T20:10:40.699Z,19.83
2018-06-12T20:13:09.778Z,19.67
2018-06-12T20:15:38.886Z,19.58
2018-06-12T20:18:08.003Z,20.05
2018-06-12T20:20:37.030Z,19.51
2018-06-12T20:23:06.134Z,19.57
2018-06-12T20:25:35.518Z,19.75
2018-06-12T20:28:04.635Z,19.43
2018-06-12T20:30:33.649Z,19.79
2018-06-12T20:33:02.669Z,19.52
2018-06-12T20:35:31.756Z,19.57
2018-06-12T20:38:00.782Z,19.37
2018-06-12T20:40:29.813Z,19.32
2018-06-12T20:42:58.818Z,19.45
2018-06-12T20:45:27.897Z,19.55
2018-06-12T20:47:56.924Z,19.36
2018-06-12T20:50:26.115Z,19.11
2018-06-12T20:52:55.213Z,19.25
2018-06-12T20:55:24.282Z,19.30
2018-06-12T20:57:53.673Z,19.14
2018-06-12T21:00:23.571Z,19.48
2018-06-12T21:02:52.770Z,19.26
2018-06-12T21:05:21.985Z,19.18
2018-06-12T21:07:50.974Z,19.44
2018-06-12T21:10:20.052Z,19.15
2018-06-12T21:12:50.423Z,19.21
2018-06-12T21:15:19.462Z,19.43
2018-06-12T21:17:48.546Z,19.21
2018-06-12T21:20:17.531Z,19.08
2018-06-12T21:22:46.518Z,19.07
2018-06-12T21:25:15.619Z,18.91
2018-06-12T21:27:44.617Z,19.17
2018-06-12T21:30:13.782Z,19.22
2018-06-12T21:32:42.979Z,19.22
2018-06-12T21:35:12.057Z,18.94
2018-06-12T21:37:41.139Z,18.93
2018-06-12T21:40:10.250Z,18.95
2018-06-12T21:42:39.314Z,19.18
2018-06-12T21:45:08.328Z,18.95
2018-06-12T21:47:37.346Z,19.51
2018-06-12T21:50:06.438Z,19.39
2018-06-12T21:52:35.454Z,19.58
2018-06-12T21:55:04.676Z,19.52
2018-06-12T21:57:33.672Z,19.14
2018-06-12T22:00:02.818Z,19.38
2018-06-12T22:02:31.955Z,19.35
2018-06-12T22:05:01.033Z,19.47
2018-06-12T22:07:30.197Z,19.64
2018-06-12T22:09:59.354Z,19.65
2018-06-12T22:12:28.440Z,19.18
2018-06-12T22:14:57.394Z,19.33
2018-06-12T22:17:26.408Z,19.72
2018-06-12T22:19:55.386Z,19.74
2018-06-12T22:22:24.443Z,19.54
2018-06-12T22:24:53.412Z,19.58
2018-06-12T22:27:22.423Z,19.65
2018-06-12T22:29:51.412Z,19.55
2018-06-12T22:32:20.432Z,19.66
2018-06-12T22:34:49.459Z,19.59
2018-06-12T22:37:18.463Z,19.59
2018-06-12T22:39:47.430Z,19.27
2018-06-12T22:42:16.476Z,19.16
2018-06-12T22:44:45.474Z,19.45
2018-06-12T22:47:14.499Z,19.20
2018-06-12T22:49:43.522Z,19.15
2018-06-12T22:52:12.530Z,19.12
2018-06-12T22:54:41.544Z,19.40
2018-06-12T22:57:10.595Z,18.87
2018-06-12T22:59:39.596Z,18.96
2018-06-12T23:02:08.591Z,18.53
2018-06-12T23:04:37.583Z,18.76
2018-06-12T23:07:06.631Z,18.70
2018-06-12T23:09:35.613Z,19.07
2018-06-12T23:12:04.623Z,19.17
2018-06-12T23:14:33.614Z,19.35
2018-06-12T23:17:02.663Z,18.84
2018-06-12T23:19:31.609Z,19.10
2018-06-12T23:22:01.608Z,19.06
2018-06-12T23:24:30.628Z,19.30
2018-06-12T23:26:59.634Z,19.56
2018-06-12T23:29:28.624Z,19.41
2018-06-12T23:31:57.600Z,19.73
2018-06-12T23:34:26.627Z,19.71
2018-06-12T23:36:55.625Z,19.78
2018-06-12T23:39:24.709Z,19.70
2018-06-12T23:41:53.638Z,19.81
2018-06-12T23:44:22.657Z,19.71
2018-06-12T23:46:51.638Z,19.59
2018-06-12T23:49:20.673Z,19.46
2018-06-12T23:51:49.653Z,19.54
2018-06-12T23:54:18.668Z,19.54
2018-06-12T23:56:47.630Z,19.54
2018-06-12T23:59:16.646Z,19.50
